Leoville, Canada
Current Conditions -  °F | °C
As of 6:00 AM on Thursday 23 Oct 2014 (Local Time) from CYQW Reporting Station
Few Clouds Few Clouds  
Wind Chill:   Ceiling: Unl
Heat Index:   Visibility: 9mi
Dew Point:   Wind: 14mph
Humidity: 76%   Direction: 120°ESE
Pressure: 29.61"   Gusts: NA
Location:  53.63°N, 107.55°W
Report Text: CYQW 231200Z AUTO 12012KT 9SM FEW230 06/02 A2961 RMK SLP042
Loading
Personal Weather Stations






























Interactive Weather Map
Tropical Storm Tracking
New forecast layout! Learn more

10-Day Weather Forecast

Advertisements
Track Severe Weather on mobile